Paradise — 3FOB5 — position and weather

sailwx.info

Track history (hours):
 
Tides and Currents Weather Stations Pressure Air Temp Water Temp Dewpoint Dewpoint Depression Visibility Wind Speed Wind Dir Waves Ship Positions

Paradise

Operator: Carnival Cruise Lines

Last reported at 2017-Apr-27 23:00 UTC. Time now 2017-Apr-28 02:17 UTC.
Position N 19°12' W 087°06'.

Type: Ship. MMSI: 355833000.

Wind from 120 at 40 knots

Barometer 1017.1 mb
Air temperature 28.0 ° C
Visibility: greater than 5.4 NM
Dewpoint 25.3 ° C
Water temperature 26.0 ° C

Date/timePositionNaut miles runAvg speedWind from/ knotsBaromVisibWave heightAir tempDewpointWater temp
2017-Apr-27 23:00N 19°12' W 087°06'72 3.2 120 / 401017.1 5.4 28.025.326.0
2017-Apr-27 00:57N 20°24' W 087°04'512.2
2017-Apr-27 00:31N 20°28' W 087°02'3 5.2
2017-Apr-26 23:59N 20°29' W 086°59'0 0.1
2017-Apr-26 23:28N 20°29' W 086°59'0 0.0
2017-Apr-26 22:58N 20°29' W 086°59'0 0.0
2017-Apr-26 22:28N 20°29' W 086°59'0 0.0
2017-Apr-26 21:58N 20°29' W 086°59'0 0.0
2017-Apr-26 21:30N 20°29' W 086°59'0 0.0
2017-Apr-26 21:00N 20°29' W 086°59'0 0.0
2017-Apr-26 20:30N 20°29' W 086°59'0 0.0
2017-Apr-26 20:00N 20°29' W 086°59'0 0.0
2017-Apr-26 19:30N 20°29' W 086°59'0 0.0
2017-Apr-26 18:56N 20°29' W 086°59'0 0.0
2017-Apr-26 18:29N 20°29' W 086°59'0 0.0
2017-Apr-26 17:59N 20°29' W 086°59'0 0.0
2017-Apr-26 17:29N 20°29' W 086°59'0 0.0
2017-Apr-26 16:56N 20°29' W 086°59'0 0.0
2017-Apr-26 16:28N 20°29' W 086°59'0 0.0
2017-Apr-26 15:58N 20°29' W 086°59'0 0.0
2017-Apr-26 15:28N 20°29' W 086°59'0 0.0
2017-Apr-26 14:58N 20°29' W 086°59'0 0.0
2017-Apr-26 14:30N 20°29' W 086°59'0 0.0
2017-Apr-26 13:30N 20°29' W 086°59'0 0.0
2017-Apr-26 13:00N 20°29' W 086°59'0 0.0
2017-Apr-26 12:29N 20°29' W 086°59'0 0.0
2017-Apr-26 12:01N 20°29' W 086°59'2 3.4
2017-Apr-26 11:31N 20°30' W 086°59'3 5.2
2017-Apr-26 11:01N 20°33' W 086°58'5 9.7
2017-Apr-26 10:30N 20°36' W 086°54'98 9.3
2017-Apr-26 00:00N 22°00' W 086°00'38215.1 150 / 211008.910.8 28.020.925.0
2017-Apr-24 22:38N 27°37' W 082°40'214.9
2017-Apr-24 22:29N 27°38' W 082°38'714.7
2017-Apr-24 22:00N 27°43' W 082°32'612.7
2017-Apr-24 21:31N 27°48' W 082°28'612.5
2017-Apr-24 21:00N 27°54' W 082°26'2 4.6
2017-Apr-24 20:28N 27°57' W 082°27'0 0.5
2017-Apr-24 19:58N 27°57' W 082°27'0 0.0
2017-Apr-24 19:27N 27°57' W 082°27'0 0.0
2017-Apr-24 19:00N 27°57' W 082°27'0 0.0
2017-Apr-24 18:30N 27°57' W 082°27'0 0.0
2017-Apr-24 18:00N 27°57' W 082°27'0 0.0
2017-Apr-24 17:30N 27°57' W 082°27'0 0.0
2017-Apr-24 16:59N 27°57' W 082°27'0 0.0
2017-Apr-24 16:29N 27°57' W 082°27'0 0.0
2017-Apr-24 15:59N 27°57' W 082°27'0 0.0
2017-Apr-24 15:29N 27°57' W 082°27'0 0.0
2017-Apr-24 14:58N 27°57' W 082°27'0 0.0
2017-Apr-24 14:28N 27°57' W 082°27'0 0.0
2017-Apr-24 13:28N 27°57' W 082°27'0 0.0
2017-Apr-24 12:58N 27°57' W 082°27'0 0.0
2017-Apr-24 12:30N 27°57' W 082°27'0 0.0
2017-Apr-24 12:00N 27°57' W 082°27'0 0.1
2017-Apr-24 11:30N 27°57' W 082°27'2 3.2
2017-Apr-24 11:00N 27°55' W 082°27'5 9.8
2017-Apr-24 10:30N 27°50' W 082°27'612.2
2017-Apr-24 10:00N 27°46' W 082°31'713.3
2017-Apr-24 09:30N 27°40' W 082°36'49214.3
2017-Apr-22 23:03N 20°31' W 086°59'110.6
2017-Apr-22 22:59N 20°31' W 086°59'2 4.0
2017-Apr-22 22:28N 20°29' W 086°59'0 0.0
2017-Apr-22 21:58N 20°29' W 086°59'0 0.0
2017-Apr-22 21:28N 20°29' W 086°59'0 0.0
2017-Apr-22 21:00N 20°29' W 086°59'0 0.0
2017-Apr-22 20:30N 20°29' W 086°59'0 0.0
2017-Apr-22 19:57N 20°29' W 086°59'0 0.0
2017-Apr-22 19:30N 20°29' W 086°59'0 0.0
2017-Apr-22 18:59N 20°29' W 086°59'0 0.0
2017-Apr-22 18:29N 20°29' W 086°59'0 0.0
2017-Apr-22 17:59N 20°29' W 086°59'0 0.0
2017-Apr-22 17:29N 20°29' W 086°59'0 0.0
2017-Apr-22 16:56N 20°29' W 086°59'0 0.0
2017-Apr-22 16:28N 20°29' W 086°59'0 0.0
2017-Apr-22 15:58N 20°29' W 086°59'0 0.0
2017-Apr-22 15:28N 20°29' W 086°59'0 0.0
2017-Apr-22 14:58N 20°29' W 086°59'0 0.0
2017-Apr-22 14:30N 20°29' W 086°59'0 0.0
2017-Apr-22 13:30N 20°29' W 086°59'0 0.0
2017-Apr-22 13:00N 20°29' W 086°59'0 0.0
2017-Apr-22 12:30N 20°29' W 086°59'0 0.0
2017-Apr-22 12:00N 20°29' W 086°59'0 0.4
2017-Apr-22 11:30N 20°29' W 086°59'3 6.8
2017-Apr-22 11:00N 20°32' W 086°58'11110.1
2017-Apr-22 00:00N 22°06' W 085°54'22714.2 040 / 151010.9 5.4 25.020.726.0
2017-Apr-21 08:00N 25°30' W 084°06'16415.4 100 / 271015.210.8 23.418.724.6
2017-Apr-20 21:21N 27°48' W 082°28'411.6
2017-Apr-20 21:00N 27°52' W 082°27'4 7.8
2017-Apr-20 20:30N 27°56' W 082°27'1 1.5
2017-Apr-20 19:58N 27°57' W 082°27'0 0.0
2017-Apr-20 19:28N 27°57' W 082°27'0 0.0
2017-Apr-20 18:58N 27°57' W 082°27'0 0.0
2017-Apr-20 18:28N 27°57' W 082°27'0 0.0
2017-Apr-20 18:00N 27°57' W 082°27'0 0.0
2017-Apr-20 17:30N 27°57' W 082°27'0 0.0
2017-Apr-20 17:00N 27°57' W 082°27'0 0.0
2017-Apr-20 16:30N 27°57' W 082°27'0 0.0
2017-Apr-20 16:00N 27°57' W 082°27'0 0.0
2017-Apr-20 15:29N 27°57' W 082°27'0 0.0
2017-Apr-20 14:59N 27°57' W 082°27'0 0.0
2017-Apr-20 14:29N 27°57' W 082°27'0 0.0
2017-Apr-20 13:29N 27°57' W 082°27'0 0.0
2017-Apr-20 12:58N 27°57' W 082°27'0 0.0
2017-Apr-20 12:29N 27°57' W 082°27'0 0.0
2017-Apr-20 12:00N 27°57' W 082°27'0 0.5
2017-Apr-20 11:30N 27°56' W 082°27'2 3.2
2017-Apr-20 11:00N 27°55' W 082°27'4 7.7
2017-Apr-20 10:30N 27°51' W 082°27'13311.5
2017-Apr-19 23:00N 26°00' W 083°48'17916.3 060 / 101019.1 5.4 24.018.022.0
2017-Apr-19 12:00N 23°18' W 085°12'17519.5 110 / 281016.2 5.4 25.022.225.0
2017-Apr-19 03:00N 20°36' W 086°24'7217.9 090 / 151017.010.8 26.023.227.0
2017-Apr-18 23:00N 19°30' W 086°54'59 2.5 100 / 191012.9 5.4 25.022.225.0
2017-Apr-17 23:44N 20°29' W 086°59'0 0.0
2017-Apr-17 23:29N 20°29' W 086°59'  
Track history (hours):
 
Tides and Currents Weather Stations Pressure Air Temp Water Temp Dewpoint Dewpoint Depression Visibility Wind Speed Wind Dir Waves Ship Positions

Paradise

Operator: Carnival Cruise Lines

Last reported at 2017-Apr-27 23:00 UTC. Time now 2017-Apr-28 02:17 UTC.
Position N 19°12' W 087°06'.

Type: Ship. MMSI: 355833000.

Wind from 120 at 40 knots

Barometer 1017.1 mb
Air temperature 28.0 ° C
Visibility: greater than 5.4 NM
Dewpoint 25.3 ° C
Water temperature 26.0 ° C

Date/timePositionNaut miles runAvg speedWind from/ knotsBaromVisibWave heightAir tempDewpointWater temp
2017-Apr-27 23:00N 19°12' W 087°06'72 3.2 120 / 401017.1 5.4 28.025.326.0
2017-Apr-27 00:57N 20°24' W 087°04'512.2
2017-Apr-27 00:31N 20°28' W 087°02'3 5.2
2017-Apr-26 23:59N 20°29' W 086°59'0 0.1
2017-Apr-26 23:28N 20°29' W 086°59'0 0.0
2017-Apr-26 22:58N 20°29' W 086°59'0 0.0
2017-Apr-26 22:28N 20°29' W 086°59'0 0.0
2017-Apr-26 21:58N 20°29' W 086°59'0 0.0
2017-Apr-26 21:30N 20°29' W 086°59'0 0.0
2017-Apr-26 21:00N 20°29' W 086°59'0 0.0
2017-Apr-26 20:30N 20°29' W 086°59'0 0.0
2017-Apr-26 20:00N 20°29' W 086°59'0 0.0
2017-Apr-26 19:30N 20°29' W 086°59'0 0.0
2017-Apr-26 18:56N 20°29' W 086°59'0 0.0
2017-Apr-26 18:29N 20°29' W 086°59'0 0.0
2017-Apr-26 17:59N 20°29' W 086°59'0 0.0
2017-Apr-26 17:29N 20°29' W 086°59'0 0.0
2017-Apr-26 16:56N 20°29' W 086°59'0 0.0
2017-Apr-26 16:28N 20°29' W 086°59'0 0.0
2017-Apr-26 15:58N 20°29' W 086°59'0 0.0
2017-Apr-26 15:28N 20°29' W 086°59'0 0.0
2017-Apr-26 14:58N 20°29' W 086°59'0 0.0
2017-Apr-26 14:30N 20°29' W 086°59'0 0.0
2017-Apr-26 13:30N 20°29' W 086°59'0 0.0
2017-Apr-26 13:00N 20°29' W 086°59'0 0.0
2017-Apr-26 12:29N 20°29' W 086°59'0 0.0
2017-Apr-26 12:01N 20°29' W 086°59'2 3.4
2017-Apr-26 11:31N 20°30' W 086°59'3 5.2
2017-Apr-26 11:01N 20°33' W 086°58'5 9.7
2017-Apr-26 10:30N 20°36' W 086°54'98 9.3
2017-Apr-26 00:00N 22°00' W 086°00'38215.1 150 / 211008.910.8 28.020.925.0
2017-Apr-24 22:38N 27°37' W 082°40'214.9
2017-Apr-24 22:29N 27°38' W 082°38'714.7
2017-Apr-24 22:00N 27°43' W 082°32'612.7
2017-Apr-24 21:31N 27°48' W 082°28'612.5
2017-Apr-24 21:00N 27°54' W 082°26'2 4.6
2017-Apr-24 20:28N 27°57' W 082°27'0 0.5
2017-Apr-24 19:58N 27°57' W 082°27'0 0.0
2017-Apr-24 19:27N 27°57' W 082°27'0 0.0
2017-Apr-24 19:00N 27°57' W 082°27'0 0.0
2017-Apr-24 18:30N 27°57' W 082°27'0 0.0
2017-Apr-24 18:00N 27°57' W 082°27'0 0.0
2017-Apr-24 17:30N 27°57' W 082°27'0 0.0
2017-Apr-24 16:59N 27°57' W 082°27'0 0.0
2017-Apr-24 16:29N 27°57' W 082°27'0 0.0
2017-Apr-24 15:59N 27°57' W 082°27'0 0.0
2017-Apr-24 15:29N 27°57' W 082°27'0 0.0
2017-Apr-24 14:58N 27°57' W 082°27'0 0.0
2017-Apr-24 14:28N 27°57' W 082°27'0 0.0
2017-Apr-24 13:28N 27°57' W 082°27'0 0.0
2017-Apr-24 12:58N 27°57' W 082°27'0 0.0
2017-Apr-24 12:30N 27°57' W 082°27'0 0.0
2017-Apr-24 12:00N 27°57' W 082°27'0 0.1
2017-Apr-24 11:30N 27°57' W 082°27'2 3.2
2017-Apr-24 11:00N 27°55' W 082°27'5 9.8
2017-Apr-24 10:30N 27°50' W 082°27'612.2
2017-Apr-24 10:00N 27°46' W 082°31'713.3
2017-Apr-24 09:30N 27°40' W 082°36'49214.3
2017-Apr-22 23:03N 20°31' W 086°59'110.6
2017-Apr-22 22:59N 20°31' W 086°59'2 4.0
2017-Apr-22 22:28N 20°29' W 086°59'0 0.0
2017-Apr-22 21:58N 20°29' W 086°59'0 0.0
2017-Apr-22 21:28N 20°29' W 086°59'0 0.0
2017-Apr-22 21:00N 20°29' W 086°59'0 0.0
2017-Apr-22 20:30N 20°29' W 086°59'0 0.0
2017-Apr-22 19:57N 20°29' W 086°59'0 0.0
2017-Apr-22 19:30N 20°29' W 086°59'0 0.0
2017-Apr-22 18:59N 20°29' W 086°59'0 0.0
2017-Apr-22 18:29N 20°29' W 086°59'0 0.0
2017-Apr-22 17:59N 20°29' W 086°59'0 0.0
2017-Apr-22 17:29N 20°29' W 086°59'0 0.0
2017-Apr-22 16:56N 20°29' W 086°59'0 0.0
2017-Apr-22 16:28N 20°29' W 086°59'0 0.0
2017-Apr-22 15:58N 20°29' W 086°59'0 0.0
2017-Apr-22 15:28N 20°29' W 086°59'0 0.0
2017-Apr-22 14:58N 20°29' W 086°59'0 0.0
2017-Apr-22 14:30N 20°29' W 086°59'0 0.0
2017-Apr-22 13:30N 20°29' W 086°59'0 0.0
2017-Apr-22 13:00N 20°29' W 086°59'0 0.0
2017-Apr-22 12:30N 20°29' W 086°59'0 0.0
2017-Apr-22 12:00N 20°29' W 086°59'0 0.4
2017-Apr-22 11:30N 20°29' W 086°59'3 6.8
2017-Apr-22 11:00N 20°32' W 086°58'11110.1
2017-Apr-22 00:00N 22°06' W 085°54'22714.2 040 / 151010.9 5.4 25.020.726.0
2017-Apr-21 08:00N 25°30' W 084°06'16415.4 100 / 271015.210.8 23.418.724.6
2017-Apr-20 21:21N 27°48' W 082°28'411.6
2017-Apr-20 21:00N 27°52' W 082°27'4 7.8
2017-Apr-20 20:30N 27°56' W 082°27'1 1.5
2017-Apr-20 19:58N 27°57' W 082°27'0 0.0
2017-Apr-20 19:28N 27°57' W 082°27'0 0.0
2017-Apr-20 18:58N 27°57' W 082°27'0 0.0
2017-Apr-20 18:28N 27°57' W 082°27'0 0.0
2017-Apr-20 18:00N 27°57' W 082°27'0 0.0
2017-Apr-20 17:30N 27°57' W 082°27'0 0.0
2017-Apr-20 17:00N 27°57' W 082°27'0 0.0
2017-Apr-20 16:30N 27°57' W 082°27'0 0.0
2017-Apr-20 16:00N 27°57' W 082°27'0 0.0
2017-Apr-20 15:29N 27°57' W 082°27'0 0.0
2017-Apr-20 14:59N 27°57' W 082°27'0 0.0
2017-Apr-20 14:29N 27°57' W 082°27'0 0.0
2017-Apr-20 13:29N 27°57' W 082°27'0 0.0
2017-Apr-20 12:58N 27°57' W 082°27'0 0.0
2017-Apr-20 12:29N 27°57' W 082°27'0 0.0
2017-Apr-20 12:00N 27°57' W 082°27'0 0.5
2017-Apr-20 11:30N 27°56' W 082°27'2 3.2
2017-Apr-20 11:00N 27°55' W 082°27'4 7.7
2017-Apr-20 10:30N 27°51' W 082°27'13311.5
2017-Apr-19 23:00N 26°00' W 083°48'17916.3 060 / 101019.1 5.4 24.018.022.0
2017-Apr-19 12:00N 23°18' W 085°12'17519.5 110 / 281016.2 5.4 25.022.225.0
2017-Apr-19 03:00N 20°36' W 086°24'7217.9 090 / 151017.010.8 26.023.227.0
2017-Apr-18 23:00N 19°30' W 086°54'59 2.5 100 / 191012.9 5.4 25.022.225.0
2017-Apr-17 23:44N 20°29' W 086°59'0 0.0
2017-Apr-17 23:29N 20°29' W 086°59'  

Dump ship's entire track history